Time;durP1;ratioP1;P1;durP2;ratioP2;P2;SDS_P1;SDS_P2;PMS_P1;PMS_P2;Temp;Humidity;BMP_temperature;BMP_pressure;BME280_temperature;BME280_humidity;BME280_pressure;Samples;Min_cycle;Max_cycle;Signal;HPM_P1;HPM_P2
2023/11/25 00:04:29;;;;;;;10.00;4.70;;;;;;;1.00;100.00;96959.64;272442;1272;22378;-87
2023/11/25 00:10:31;;;;;;;10.90;5.30;;;;;;;1.02;100.00;96957.00;272526;1272;23374;-87
2023/11/25 00:16:33;;;;;;;10.90;4.70;;;;;;;1.04;100.00;96951.89;272493;1255;22368;-87
2023/11/25 00:22:35;;;;;;;9.70;3.80;;;;;;;1.06;100.00;96955.39;272474;1272;22972;-87
2023/11/25 00:28:37;;;;;;;7.10;3.30;;;;;;;1.08;100.00;96948.55;272325;1271;22160;-88
2023/11/25 00:34:39;;;;;;;7.80;4.00;;;;;;;1.09;100.00;96948.88;272461;1272;23399;-87
2023/11/25 00:40:41;;;;;;;9.00;4.00;;;;;;;1.09;100.00;96955.57;272425;1271;22337;-87
2023/11/25 00:46:43;;;;;;;9.90;3.90;;;;;;;1.09;100.00;96946.34;272447;1271;22284;-87
2023/11/25 00:52:45;;;;;;;12.50;4.20;;;;;;;1.07;100.00;96935.67;272272;1262;23584;-87
2023/11/25 00:58:47;;;;;;;12.00;4.90;;;;;;;1.05;100.00;96926.89;272548;1272;22279;-88
2023/11/25 01:04:49;;;;;;;12.20;5.90;;;;;;;1.03;100.00;96916.29;272321;1271;22543;-86
2023/11/25 01:10:51;;;;;;;13.00;6.60;;;;;;;1.01;100.00;96908.80;272425;1272;22315;-86
2023/11/25 01:16:53;;;;;;;11.20;4.70;;;;;;;1.01;100.00;96914.65;272448;1271;23269;-87
2023/11/25 01:22:56;;;;;;;9.20;4.40;;;;;;;0.95;100.00;96916.48;272802;1272;22159;-85
2023/11/25 01:28:58;;;;;;;9.90;3.70;;;;;;;0.82;100.00;96919.43;272469;1270;22330;-86
2023/11/25 01:35:00;;;;;;;8.00;3.70;;;;;;;0.72;100.00;96917.43;272219;1272;22396;-87
2023/11/25 01:41:04;;;;;;;7.20;4.20;;;;;;;0.68;100.00;96906.06;272453;1272;22614;-85
2023/11/25 01:47:09;;;;;;;9.20;4.20;;;;;;;0.69;100.00;96902.84;272633;1272;22225;-87
2023/11/25 01:53:14;;;;;;;14.00;5.10;;;;;;;0.66;100.00;96896.73;272930;1273;23331;-86
2023/11/25 01:59:18;;;;;;;11.60;4.60;;;;;;;0.64;100.00;96893.54;273011;1274;22206;-87
2023/11/25 02:05:42;;;;;;;9.30;4.40;;;;;;;0.67;100.00;96890.80;272997;1278;22322;-88
2023/11/25 02:12:07;;;;;;;7.20;3.80;;;;;;;0.72;100.00;96878.11;273165;1272;22170;-87
2023/11/25 02:18:30;;;;;;;10.50;4.80;;;;;;;0.73;100.00;96876.83;272841;1272;23279;-87
2023/11/25 02:24:52;;;;;;;11.00;4.20;;;;;;;0.67;100.00;96875.89;272998;1275;22159;-87
2023/11/25 02:38:26;;;;;;;8.50;4.40;;;;;;;0.46;100.00;96883.08;272097;1280;22210;-85
2023/11/25 02:52:26;;;;;;;6.80;3.70;;;;;;;0.58;100.00;96907.65;272166;1285;22685;-85
2023/11/25 03:05:54;;;;;;;6.70;3.70;;;;;;;0.69;100.00;96920.15;272218;1280;22959;-85
2023/11/25 03:19:39;;;;;;;5.90;3.40;;;;;;;0.80;100.00;96922.71;270758;1286;22225;-85
2023/11/25 03:34:25;;;;;;;7.40;3.80;;;;;;;0.79;100.00;96922.08;270544;1286;22249;-86
2023/11/25 03:40:53;;;;;;;8.50;4.60;;;;;;;0.81;100.00;96922.35;270655;1286;22282;-85
2023/11/25 03:47:32;;;;;;;6.30;4.00;;;;;;;0.87;100.00;96927.20;270866;1280;22248;-86
2023/11/25 03:54:39;;;;;;;6.40;3.90;;;;;;;0.89;100.00;96934.33;271942;1287;23471;-85
2023/11/25 04:17:30;;;;;;;8.60;4.60;;;;;;;1.01;100.00;96944.12;271931;1279;22251;-87
2023/11/25 04:23:32;;;;;;;8.60;3.90;;;;;;;1.05;100.00;96957.83;271417;1279;22249;-88
2023/11/25 04:30:02;;;;;;;7.50;3.70;;;;;;;1.10;100.00;96965.98;271983;1280;22326;-87
2023/11/25 04:36:04;;;;;;;7.70;3.80;;;;;;;1.13;100.00;96964.02;271325;1279;22233;-86
2023/11/25 04:42:06;;;;;;;7.50;3.40;;;;;;;1.13;100.00;96967.41;271041;1273;22330;-86
2023/11/25 04:48:11;;;;;;;5.50;2.70;;;;;;;1.10;100.00;96976.45;271403;1278;22294;-86
2023/11/25 04:54:14;;;;;;;6.10;3.40;;;;;;;1.05;100.00;96979.46;271381;1277;258542;-88
2023/11/25 05:00:17;;;;;;;7.50;4.00;;;;;;;1.03;100.00;96987.97;271523;1277;22431;-88
2023/11/25 05:06:19;;;;;;;11.60;5.30;;;;;;;1.00;100.00;96998.00;271372;1264;22376;-88
2023/11/25 05:12:25;;;;;;;7.50;4.90;;;;;;;0.98;100.00;97005.96;271372;1277;22452;-87
2023/11/25 05:18:27;;;;;;;9.70;5.50;;;;;;;0.95;100.00;97015.61;270629;1277;22588;-86
2023/11/25 05:24:29;;;;;;;12.90;7.40;;;;;;;0.94;100.00;97019.53;268869;1277;22566;-87
2023/11/25 05:30:31;;;;;;;12.00;7.60;;;;;;;0.94;100.00;97032.31;268404;1274;22578;-88
2023/11/25 05:36:45;;;;;;;12.80;7.80;;;;;;;0.94;100.00;97044.09;270345;1277;22238;-86
2023/11/25 05:43:01;;;;;;;15.80;9.00;;;;;;;0.88;100.00;97055.36;271050;1277;23479;-88
2023/11/25 05:49:12;;;;;;;17.40;8.90;;;;;;;0.81;100.00;97068.49;271164;1277;22462;-90
2023/11/25 05:55:15;;;;;;;21.30;10.60;;;;;;;0.77;100.00;97082.18;269532;1277;22555;-87
2023/11/25 06:01:17;;;;;;;12.70;8.20;;;;;;;0.71;100.00;97099.77;271102;1277;22324;-88
2023/11/25 06:07:19;;;;;;;12.00;7.10;;;;;;;0.65;100.00;97106.42;271399;1278;22229;-88
2023/11/25 06:13:47;;;;;;;13.80;7.20;;;;;;;0.61;100.00;97123.17;271491;1277;22370;-89
2023/11/25 06:20:48;;;;;;;9.60;4.70;;;;;;;0.56;100.00;97143.04;271426;1277;24098;-88
2023/11/25 06:26:56;;;;;;;9.70;4.40;;;;;;;0.52;100.00;97152.80;271149;1277;22350;-89
2023/11/25 06:32:58;;;;;;;6.80;3.80;;;;;;;0.52;100.00;97163.86;271358;1277;22185;-87
2023/11/25 06:39:04;;;;;;;7.90;4.00;;;;;;;0.52;100.00;97171.86;271244;1278;22294;-90
2023/11/25 06:45:07;;;;;;;6.80;3.60;;;;;;;0.53;100.00;97185.89;271421;1277;22422;-88
2023/11/25 06:51:11;;;;;;;6.70;4.10;;;;;;;0.54;100.00;97201.27;271392;1277;22400;-88
2023/11/25 06:57:16;;;;;;;9.10;3.90;;;;;;;0.57;100.00;97215.51;271322;1277;22356;-88
2023/11/25 07:03:19;;;;;;;8.30;4.30;;;;;;;0.58;100.00;97231.92;271074;1277;23277;-87
2023/11/25 07:09:21;;;;;;;9.30;4.00;;;;;;;0.58;100.00;97242.23;271225;1277;22176;-89
2023/11/25 07:15:49;;;;;;;7.50;3.90;;;;;;;0.57;100.00;97259.27;271486;1277;22373;-88
2023/11/25 07:21:52;;;;;;;7.70;3.50;;;;;;;0.56;100.00;97260.63;270749;1277;22387;-88
2023/11/25 07:27:57;;;;;;;7.20;3.30;;;;;;;0.56;100.00;97270.48;270423;1277;22417;-87
2023/11/25 07:34:08;;;;;;;5.90;2.70;;;;;;;0.61;100.00;97282.59;270262;1277;23755;-89
2023/11/25 07:40:14;;;;;;;6.90;2.50;;;;;;;0.65;100.00;97295.69;270455;1277;22322;-89
2023/11/25 07:46:16;;;;;;;4.60;2.40;;;;;;;0.73;100.00;97307.41;270572;1277;23589;-87
2023/11/25 07:52:18;;;;;;;5.30;2.20;;;;;;;0.74;100.00;97308.52;270576;1277;23676;-88
2023/11/25 07:58:22;;;;;;;4.20;2.00;;;;;;;0.68;100.00;97312.84;270626;1264;23653;-88
2023/11/25 08:04:24;;;;;;;4.40;2.00;;;;;;;0.64;100.00;97323.91;270387;1277;23741;-88
2023/11/25 08:10:31;;;;;;;5.90;2.40;;;;;;;0.60;100.00;97331.65;270403;1277;23239;-89
2023/11/25 08:16:36;;;;;;;4.80;2.50;;;;;;;0.57;100.00;97339.50;270570;1277;23892;-88
2023/11/25 08:22:43;;;;;;;5.40;2.60;;;;;;;0.56;100.00;97352.89;270648;1277;22332;-88
2023/11/25 08:28:45;;;;;;;8.10;3.00;;;;;;;0.59;100.00;97367.71;270587;1277;22588;-89
2023/11/25 08:34:48;;;;;;;11.10;4.50;;;;;;;0.68;100.00;97378.08;270478;1277;22384;-87
2023/11/25 08:40:50;;;;;;;8.90;5.40;;;;;;;0.78;100.00;97386.56;270512;1277;23209;-88
2023/11/25 08:46:53;;;;;;;7.80;5.40;;;;;;;0.91;100.00;97393.23;270689;1278;23756;-87
2023/11/25 08:52:56;;;;;;;11.80;6.20;;;;;;;0.96;100.00;97407.45;270765;1277;22406;-88
2023/11/25 08:59:01;;;;;;;10.70;5.10;;;;;;;0.97;100.00;97416.48;270499;1278;22353;-88
2023/11/25 09:05:03;;;;;;;9.20;5.10;;;;;;;0.96;100.00;97419.00;270628;1270;22201;-89
2023/11/25 09:11:07;;;;;;;10.80;5.50;;;;;;;0.91;100.00;97423.36;270582;1279;22480;-88
2023/11/25 09:17:15;;;;;;;12.80;6.30;;;;;;;0.97;100.00;97425.71;270543;1277;22446;-87
2023/11/25 09:23:19;;;;;;;8.90;4.50;;;;;;;1.03;100.00;97428.11;270568;1277;22457;-89
2023/11/25 09:29:22;;;;;;;11.20;6.60;;;;;;;1.04;100.00;97433.05;270554;1277;22437;-89
2023/11/25 09:35:25;;;;;;;11.10;5.90;;;;;;;1.04;100.00;97442.20;270627;1277;23234;-89
2023/11/25 09:41:30;;;;;;;12.20;5.70;;;;;;;1.01;100.00;97446.21;270627;1277;22345;-88
2023/11/25 09:47:33;;;;;;;11.60;5.60;;;;;;;0.96;100.00;97451.48;270558;1277;22386;-88
2023/11/25 09:53:39;;;;;;;13.10;6.80;;;;;;;0.93;100.00;97452.58;270453;1277;22333;-89
2023/11/25 09:59:42;;;;;;;13.00;6.90;;;;;;;1.24;100.00;97454.98;270547;1273;22492;-87
2023/11/25 10:05:44;;;;;;;11.00;6.00;;;;;;;1.41;100.00;97454.68;270520;1277;23799;-88
2023/11/25 10:11:47;;;;;;;11.90;6.50;;;;;;;1.38;100.00;97447.44;270911;1277;22350;-88
2023/11/25 10:17:50;;;;;;;13.20;6.00;;;;;;;1.39;100.00;97447.39;270669;1277;22355;-88
2023/11/25 10:23:54;;;;;;;10.60;5.90;;;;;;;1.39;100.00;97453.16;270757;1277;22324;-87
2023/11/25 10:30:02;;;;;;;11.30;5.90;;;;;;;1.41;100.00;97458.52;270695;1276;23567;-88
2023/11/25 10:36:05;;;;;;;11.10;6.20;;;;;;;1.43;100.00;97457.57;270784;1277;23390;-87
2023/11/25 10:42:09;;;;;;;11.50;5.50;;;;;;;1.52;100.00;97460.31;270674;1277;23622;-87
2023/11/25 10:48:15;;;;;;;10.90;5.50;;;;;;;1.59;100.00;97459.98;270535;1277;22357;-87
2023/11/25 10:54:26;;;;;;;9.70;5.40;;;;;;;1.56;100.00;97458.47;270783;1277;22358;-87
2023/11/25 11:00:29;;;;;;;11.00;6.00;;;;;;;1.55;100.00;97466.77;270863;1277;22877;-86
2023/11/25 11:06:45;;;;;;;15.20;7.10;;;;;;;1.53;100.00;97467.95;270839;1277;22447;-87
2023/11/25 11:12:55;;;;;;;11.90;4.90;;;;;;;1.52;100.00;97464.87;270743;1277;23270;-86
2023/11/25 11:18:57;;;;;;;7.10;3.90;;;;;;;1.50;100.00;97470.22;270620;1277;22343;-88
2023/11/25 11:25:12;;;;;;;9.60;4.30;;;;;;;1.47;100.00;97475.86;270940;1277;22320;-88
2023/11/25 11:31:44;;;;;;;16.10;5.60;;;;;;;1.43;100.00;97487.54;270755;1277;24145;-87
2023/11/25 11:37:48;;;;;;;13.30;5.60;;;;;;;1.32;100.00;97492.83;270744;1277;22495;-87
2023/11/25 11:44:05;;;;;;;9.00;4.70;;;;;;;1.35;100.00;97492.28;270886;1279;23563;-89
2023/11/25 11:50:10;;;;;;;11.00;5.30;;;;;;;1.45;100.00;97493.45;269956;1279;23157;-87
2023/11/25 11:56:13;;;;;;;8.90;4.50;;;;;;;1.52;100.00;97485.34;271178;1279;22215;-88
2023/11/25 12:02:15;;;;;;;11.00;4.90;;;;;;;1.55;100.00;97477.04;271232;1278;22422;-88
2023/11/25 12:08:20;;;;;;;10.00;5.60;;;;;;;1.58;100.00;97474.18;271187;1279;22584;-87
2023/11/25 12:14:23;;;;;;;14.50;6.90;;;;;;;1.49;100.00;97474.52;271185;1277;23750;-87
2023/11/25 12:20:27;;;;;;;14.60;8.20;;;;;;;1.32;100.00;97486.77;271088;1279;22279;-88
2023/11/25 12:26:33;;;;;;;13.90;7.20;;;;;;;1.14;100.00;97486.33;271237;1279;22220;-88
2023/11/25 12:32:37;;;;;;;14.10;7.50;;;;;;;1.11;100.00;97480.33;271273;1270;22269;-90
2023/11/25 12:38:39;;;;;;;14.60;6.60;;;;;;;1.23;100.00;97479.61;271276;1279;22395;-88
2023/11/25 12:44:48;;;;;;;15.00;6.40;;;;;;;1.32;100.00;97475.81;271232;1277;23215;-88
2023/11/25 12:51:06;;;;;;;8.40;5.30;;;;;;;1.29;100.00;97478.06;271331;1278;23469;-88
2023/11/25 12:57:10;;;;;;;11.20;6.00;;;;;;;1.36;100.00;97473.05;271310;1269;22381;-88
2023/11/25 13:03:22;;;;;;;11.30;6.30;;;;;;;1.49;100.00;97466.58;271293;1279;22931;-89
2023/11/25 13:09:44;;;;;;;;;;;;;;;;;;;;;
2023/11/25 13:16:22;;;;;;;11.10;6.30;;;;;;;1.38;100.00;97464.31;271358;1277;22237;-89
2023/11/25 13:22:25;;;;;;;8.00;4.50;;;;;;;1.26;100.00;97469.14;272008;1274;23378;-88
2023/11/25 13:28:29;;;;;;;11.30;5.90;;;;;;;1.09;100.00;97475.29;272082;1280;23398;-89
2023/11/25 13:34:31;;;;;;;13.30;6.60;;;;;;;0.98;100.00;97477.94;270538;1277;23368;-87
2023/11/25 13:40:52;;;;;;;14.40;6.90;;;;;;;0.93;100.00;97479.76;270725;1276;23353;-87
2023/11/25 13:47:00;;;;;;;15.60;7.70;;;;;;;0.86;100.00;97483.03;271309;1278;22286;-88
2023/11/25 13:53:04;;;;;;;17.30;8.30;;;;;;;0.76;100.00;97493.55;271065;1277;22273;-87
2023/11/25 13:59:07;;;;;;;15.10;8.20;;;;;;;0.68;100.00;97504.05;271278;1273;22192;-86
2023/11/25 14:05:09;;;;;;;18.60;10.30;;;;;;;0.65;100.00;97514.89;271129;1279;23833;-87
2023/11/25 14:11:14;;;;;;;18.70;8.90;;;;;;;0.68;100.00;97521.60;270801;1277;22344;-86
2023/11/25 14:17:17;;;;;;;14.80;7.80;;;;;;;0.71;100.00;97522.65;271312;1278;22375;-87
2023/11/25 14:23:19;;;;;;;19.30;8.70;;;;;;;0.71;100.00;97525.75;271244;1278;22248;-86
2023/11/25 14:29:22;;;;;;;23.70;10.00;;;;;;;0.74;100.00;97521.75;271150;1278;22777;-85
2023/11/25 14:35:25;;;;;;;18.90;9.30;;;;;;;0.72;100.00;97522.48;271467;1277;22699;-87
2023/11/25 14:41:27;;;;;;;19.80;9.60;;;;;;;0.66;100.00;97526.23;271493;1279;23530;-87
2023/11/25 14:47:30;;;;;;;22.90;10.70;;;;;;;0.62;100.00;97527.89;271129;1278;23433;-86
2023/11/25 14:53:31;;;;;;;25.10;10.30;;;;;;;0.62;100.00;97532.83;271157;1267;23634;-85
2023/11/25 14:59:34;;;;;;;21.10;10.60;;;;;;;0.60;100.00;97539.30;271318;1278;22222;-86
2023/11/25 15:05:37;;;;;;;20.50;11.30;;;;;;;0.58;100.00;97538.94;269717;1277;22218;-85
2023/11/25 15:32:18;;;;;;;25.40;11.80;;;;;;;0.65;100.00;97554.90;266546;1293;548959;-85
2023/11/25 15:38:19;;;;;;;19.60;10.50;;;;;;;0.57;100.00;97568.85;271039;1279;22729;-86
2023/11/25 15:44:21;;;;;;;21.30;10.60;;;;;;;0.46;100.00;97572.15;270649;1279;22222;-86
2023/11/25 15:50:25;;;;;;;19.50;10.60;;;;;;;0.42;100.00;97585.21;270131;1276;23100;-85
2023/11/25 15:56:27;;;;;;;21.90;11.30;;;;;;;0.41;100.00;97588.23;269938;1274;23231;-86
2023/11/25 16:02:28;;;;;;;27.20;13.00;;;;;;;0.39;100.00;97587.29;269496;1272;22339;-85
2023/11/25 16:08:30;;;;;;;23.30;12.80;;;;;;;0.35;100.00;97587.10;271980;1272;22254;-85
2023/11/25 16:14:31;;;;;;;23.30;12.00;;;;;;;0.33;100.00;97591.32;272088;1272;22557;-87
2023/11/25 16:20:34;;;;;;;25.20;12.10;;;;;;;0.33;100.00;97596.56;271049;1272;23477;-86
2023/11/25 16:26:36;;;;;;;27.20;13.20;;;;;;;0.34;100.00;97594.35;271118;1271;22567;-87
2023/11/25 16:32:37;;;;;;;26.20;14.30;;;;;;;0.34;100.00;97594.14;271173;1272;22522;-86
2023/11/25 16:38:38;;;;;;;29.80;15.50;;;;;;;0.35;100.00;97593.24;271185;1272;23791;-86
2023/11/25 16:44:40;;;;;;;28.50;14.20;;;;;;;0.34;100.00;97594.81;271470;1272;22505;-85
2023/11/25 16:50:41;;;;;;;32.30;14.80;;;;;;;0.31;100.00;97595.80;270380;1272;22649;-86
2023/11/25 16:56:42;;;;;;;21.80;13.50;;;;;;;0.27;100.00;97595.79;271721;1269;22697;-86
2023/11/25 17:02:44;;;;;;;29.30;14.60;;;;;;;0.23;100.00;97605.34;271648;1269;23146;-87
2023/11/25 17:08:46;;;;;;;27.20;14.20;;;;;;;0.18;100.00;97602.06;272213;1269;23237;-86
2023/11/25 17:14:47;;;;;;;23.60;12.80;;;;;;;0.12;100.00;97605.86;272249;1269;22333;-86
2023/11/25 17:20:48;;;;;;;30.50;15.20;;;;;;;0.06;100.00;97608.31;272019;1269;22399;-87
2023/11/25 17:26:51;;;;;;;28.60;15.00;;;;;;;0.01;100.00;97614.47;271015;1269;23162;-86
2023/11/25 17:32:53;;;;;;;24.00;13.90;;;;;;;-0.03;100.00;97608.60;270931;1268;23511;-87
2023/11/25 17:38:54;;;;;;;28.80;15.10;;;;;;;-0.07;100.00;97609.23;272092;1269;22447;-86
2023/11/25 17:44:58;;;;;;;35.60;15.40;;;;;;;-0.12;100.00;97613.80;272300;1268;22215;-86
2023/11/25 17:51:00;;;;;;;30.00;16.00;;;;;;;-0.14;100.00;97620.46;272880;1269;22259;-87
2023/11/25 17:57:02;;;;;;;37.70;17.70;;;;;;;-0.21;100.00;97625.17;272224;1269;22438;-86
2023/11/25 18:03:04;;;;;;;35.80;18.50;;;;;;;-0.23;100.00;97633.40;271960;1269;23722;-86
2023/11/25 18:09:05;;;;;;;31.40;16.50;;;;;;;-0.26;100.00;97632.41;272094;1269;22461;-87
2023/11/25 18:15:07;;;;;;;34.30;15.40;;;;;;;-0.31;100.00;97633.70;272138;1266;22429;-87
2023/11/25 18:21:08;;;;;;;32.20;15.70;;;;;;;-0.40;100.00;97631.04;272205;1269;22547;-86
2023/11/25 18:27:10;;;;;;;26.00;14.50;;;;;;;-0.48;100.00;97633.48;272670;1269;22506;-87
2023/11/25 18:33:11;;;;;;;29.70;15.40;;;;;;;-0.52;100.00;97631.17;272387;1269;22439;-86
2023/11/25 18:39:13;;;;;;;30.50;14.70;;;;;;;-0.56;100.00;97632.73;270850;1269;22200;-85
2023/11/25 18:45:18;;;;;;;31.50;15.40;;;;;;;-0.53;100.00;97633.90;271518;1269;23091;-85
2023/11/25 18:51:20;;;;;;;28.60;14.00;;;;;;;-0.47;100.00;97628.12;271640;1269;22569;-86
2023/11/25 18:57:21;;;;;;;28.70;14.30;;;;;;;-0.40;100.00;97627.97;271624;1269;22498;-84
2023/11/25 19:03:25;;;;;;;30.20;14.00;;;;;;;-0.36;100.00;97627.41;271744;1269;22534;-86
2023/11/25 19:09:28;;;;;;;34.60;17.20;;;;;;;-0.32;100.00;97637.36;271788;1269;24747;-85
2023/11/25 19:15:30;;;;;;;31.70;16.50;;;;;;;-0.29;100.00;97644.99;271795;1269;22580;-85
2023/11/25 19:21:31;;;;;;;28.80;15.30;;;;;;;-0.25;100.00;97648.56;271913;1269;23621;-85
2023/11/25 19:27:32;;;;;;;27.50;14.70;;;;;;;-0.20;100.00;97649.50;272211;1269;22682;-85
2023/11/25 19:33:34;;;;;;;28.90;14.90;;;;;;;-0.17;100.00;97644.73;271389;1269;22996;-85
2023/11/25 19:39:35;;;;;;;34.80;15.20;;;;;;;-0.14;100.00;97648.44;271885;1269;22633;-86
2023/11/25 19:45:36;;;;;;;37.60;16.80;;;;;;;-0.13;100.00;97652.64;270776;1269;22308;-85
2023/11/25 19:51:39;;;;;;;30.60;17.20;;;;;;;-0.12;100.00;97654.14;270869;1269;23078;-87
2023/11/25 19:57:40;;;;;;;38.10;18.90;;;;;;;-0.09;100.00;97656.38;271802;1256;22569;-87
2023/11/25 20:03:42;;;;;;;43.90;20.90;;;;;;;-0.08;100.00;97647.94;272222;1269;22324;-86
2023/11/25 20:09:43;;;;;;;40.20;19.90;;;;;;;-0.08;100.00;97640.41;271924;1269;22572;-86
2023/11/25 20:15:45;;;;;;;41.90;18.90;;;;;;;-0.10;100.00;97639.36;272525;1269;23882;-86
2023/11/25 20:21:46;;;;;;;37.20;18.40;;;;;;;-0.17;100.00;97645.44;271606;1269;23457;-85
2023/11/25 20:27:47;;;;;;;36.30;17.60;;;;;;;-0.21;100.00;97649.61;270556;1269;23065;-86
2023/11/25 20:33:50;;;;;;;38.30;18.50;;;;;;;-0.23;100.00;97654.23;271417;1269;22402;-84
2023/11/25 20:39:52;;;;;;;38.10;18.90;;;;;;;-0.24;100.00;97656.61;271822;1267;23733;-85
2023/11/25 20:45:54;;;;;;;39.20;19.50;;;;;;;-0.23;100.00;97649.55;272845;1269;22422;-85
2023/11/25 20:51:59;;;;;;;44.90;21.30;;;;;;;-0.22;100.00;97635.04;270958;1269;22329;-86
2023/11/25 20:58:00;;;;;;;42.60;21.00;;;;;;;-0.23;100.00;97636.73;271588;1265;23574;-85
2023/11/25 21:04:02;;;;;;;39.60;19.50;;;;;;;-0.23;100.00;97651.32;272748;1269;22524;-84
2023/11/25 21:10:06;;;;;;;34.90;17.70;;;;;;;-0.24;100.00;97654.96;272699;1253;22453;-84
2023/11/25 21:16:07;;;;;;;35.50;18.00;;;;;;;-0.22;100.00;97651.73;271881;1269;22465;-84
2023/11/25 21:22:08;;;;;;;35.70;18.50;;;;;;;-0.21;100.00;97645.63;270494;1269;22477;-84
2023/11/25 21:28:13;;;;;;;40.90;20.50;;;;;;;-0.22;100.00;97637.29;272057;1269;22231;-84
2023/11/25 21:34:15;;;;;;;39.10;19.70;;;;;;;-0.21;100.00;97644.98;270911;1268;22396;-84
2023/11/25 21:40:18;;;;;;;42.40;20.20;;;;;;;-0.21;100.00;97654.67;271761;1269;23162;-83
2023/11/25 21:46:20;;;;;;;40.40;21.10;;;;;;;-0.18;100.00;97662.92;272959;1269;22557;-84
2023/11/25 21:52:21;;;;;;;43.70;20.50;;;;;;;-0.13;100.00;97660.77;270922;1267;22574;-85
2023/11/25 21:58:22;;;;;;;36.60;19.60;;;;;;;-0.09;100.00;97661.81;271593;1270;24327;-84
2023/11/25 22:04:25;;;;;;;36.40;20.10;;;;;;;-0.05;100.00;97666.41;273017;1269;22273;-84
2023/11/25 22:11:14;;;;;;;43.10;21.60;;;;;;;-0.01;100.00;97662.38;272448;1268;22384;-84
2023/11/25 22:17:15;;;;;;;40.60;20.90;;;;;;;0.03;100.00;97663.72;273148;1270;22819;-84
2023/11/25 22:23:17;;;;;;;42.90;21.60;;;;;;;0.05;100.00;97662.86;273136;1261;23577;-83
2023/11/25 22:29:18;;;;;;;47.60;24.40;;;;;;;0.06;100.00;97660.19;272854;1269;22203;-83
2023/11/25 22:35:19;;;;;;;50.00;24.50;;;;;;;0.08;100.00;97660.41;272299;1269;22736;-83
2023/11/25 22:41:23;;;;;;;41.00;20.90;;;;;;;0.13;100.00;97660.23;271374;1270;22707;-85
2023/11/25 22:47:40;;;;;;;51.40;22.60;;;;;;;0.15;100.00;97659.08;272255;1269;23375;-84
2023/11/25 22:53:56;;;;;;;42.80;20.60;;;;;;;0.16;100.00;97657.73;272278;1260;23471;-84
2023/11/25 23:00:28;;;;;;;;;;;;;;;0.16;100.00;97662.80;273182;1268;22541;-84
2023/11/25 23:06:34;;;;;;;40.90;19.10;;;;;;;0.14;100.00;97659.52;271951;1267;23215;-85
2023/11/25 23:12:36;;;;;;;40.00;22.10;;;;;;;0.14;100.00;97655.75;272038;1269;23955;-84
2023/11/25 23:18:38;;;;;;;41.40;20.40;;;;;;;0.13;100.00;97651.42;272366;1270;22562;-84
2023/11/25 23:25:15;;;;;;;33.70;19.00;;;;;;;0.14;100.00;97648.45;273490;1257;23405;-84
2023/11/25 23:31:16;;;;;;;33.90;17.00;;;;;;;0.15;100.00;97656.02;273391;1263;23503;-84
2023/11/25 23:37:17;;;;;;;28.90;15.70;;;;;;;0.17;100.00;97660.98;273123;1260;23326;-84
2023/11/25 23:43:40;;;;;;;28.20;16.20;;;;;;;0.16;100.00;97648.14;271312;1268;23340;-84
2023/11/25 23:49:41;;;;;;;29.10;15.90;;;;;;;0.16;100.00;97647.05;270681;1260;22597;-84
2023/11/25 23:55:42;;;;;;;32.10;15.50;;;;;;;0.16;100.00;97648.80;270597;1269;22574;-84
